Time;durP1;ratioP1;P1;durP2;ratioP2;P2;SDS_P1;SDS_P2;PMS_P1;PMS_P2;Temp;Humidity;BMP_temperature;BMP_pressure;BME280_temperature;BME280_humidity;BME280_pressure;Samples;Min_cycle;Max_cycle;Signal;HPM_P1;HPM_P2
2023/06/19 00:00:56;;;;;;;9.85;6.32;;;;;;;;;;5067584;28;20031;-90
2023/06/19 00:03:22;;;;;;;8.63;7.03;;;;;;;;;;5084362;28;20042;-88
2023/06/19 00:05:48;;;;;;;9.43;6.80;;;;;;;;;;5071107;28;20027;-90
2023/06/19 00:08:14;;;;;;;8.80;7.28;;;;;;;;;;5063835;28;20088;-89
2023/06/19 00:10:40;;;;;;;7.85;6.15;;;;;;;;;;5072598;28;20125;-89
2023/06/19 00:13:06;;;;;;;10.60;6.95;;;;;;;;;;5085692;28;20028;-90
2023/06/19 00:15:32;;;;;;;8.68;7.00;;;;;;;;;;5082999;28;20051;-89
2023/06/19 00:17:59;;;;;;;8.30;7.38;;;;;;;;;;5084274;28;20041;-88
2023/06/19 00:20:25;;;;;;;9.35;7.43;;;;;;;;;;5074487;28;20032;-89
2023/06/19 00:22:51;;;;;;;10.10;7.90;;;;;;;;;;5072507;28;20021;-88
2023/06/19 00:25:20;;;;;;;9.50;7.88;;;;;;;;;;5072453;28;20028;-89
2023/06/19 00:27:47;;;;;;;11.27;7.78;;;;;;;;;;5087410;28;20021;-87
2023/06/19 00:30:13;;;;;;;10.93;8.15;;;;;;;;;;5084868;28;20017;-88
2023/06/19 00:32:46;;;;;;;10.43;7.72;;;;;;;;;;5087291;28;20017;-89
2023/06/19 00:35:15;;;;;;;12.50;7.45;;;;;;;;;;5069923;28;20056;-87
2023/06/19 00:37:45;;;;;;;11.68;8.25;;;;;;;;;;5072969;28;20059;-87
2023/06/19 00:40:14;;;;;;;8.70;5.63;;;;;;;;;;5072944;28;20058;-89
2023/06/19 00:42:40;;;;;;;7.63;5.57;;;;;;;;;;5089253;28;20039;-88
2023/06/19 00:45:07;;;;;;;8.80;6.75;;;;;;;;;;5085580;28;20025;-88
2023/06/19 00:47:34;;;;;;;8.57;7.03;;;;;;;;;;5091146;28;20027;-88
2023/06/19 00:50:00;;;;;;;8.27;6.35;;;;;;;;;;5069374;28;20177;-87
2023/06/19 00:52:26;;;;;;;9.48;6.05;;;;;;;;;;5093712;28;20039;-89
2023/06/19 00:54:53;;;;;;;8.75;6.13;;;;;;;;;;5087419;28;20647;-87
2023/06/19 00:57:19;;;;;;;7.43;5.20;;;;;;;;;;5082793;28;20024;-92
2023/06/19 00:59:46;;;;;;;6.15;4.82;;;;;;;;;;5087428;28;20088;-91
2023/06/19 01:02:12;;;;;;;8.85;5.03;;;;;;;;;;5069427;28;20055;-90
2023/06/19 01:04:38;;;;;;;8.35;4.65;;;;;;;;;;5074902;28;20040;-88
2023/06/19 01:07:09;;;;;;;5.45;4.03;;;;;;;;;;5092412;28;20024;-90
2023/06/19 01:09:40;;;;;;;5.18;4.00;;;20.20;99.90;;;;;;5078721;28;20037;-88
2023/06/19 01:12:14;;;;;;;7.70;4.13;;;;;;;;;;5089493;28;20071;-90
2023/06/19 01:14:45;;;;;;;7.88;4.30;;;;;;;;;;5076329;28;20028;-88
2023/06/19 01:17:11;;;;;;;4.45;3.35;;;;;;;;;;5075277;28;20084;-87
2023/06/19 01:19:37;;;;;;;6.50;3.72;;;;;;;;;;5093971;28;20015;-88
2023/06/19 01:22:05;;;;;;;6.45;3.55;;;;;;;;;;5075735;28;20020;-88
2023/06/19 01:24:31;;;;;;;5.50;3.95;;;;;;;;;;5077283;28;20027;-88
2023/06/19 01:26:57;;;;;;;6.80;3.72;;;;;;;;;;5077576;28;20032;-86
2023/06/19 01:29:24;;;;;;;6.85;3.63;;;;;;;;;;5095554;28;20028;-87
2023/06/19 01:31:56;;;;;;;7.57;3.53;;;;;;;;;;5074248;28;20017;-86
2023/06/19 01:34:22;;;;;;;5.72;3.42;;;;;;;;;;5090647;28;20046;-87
2023/06/19 01:36:49;;;;;;;4.88;3.30;;;;;;;;;;5096059;28;20015;-89
2023/06/19 01:39:16;;;;;;;5.68;3.53;;;;;;;;;;5076673;28;20071;-89
2023/06/19 01:41:43;;;;;;;5.50;3.38;;;;;;;;;;5079511;28;20016;-88
2023/06/19 01:44:09;;;;;;;5.53;3.80;;;;;;;;;;5079089;28;20017;-87
2023/06/19 01:46:35;;;;;;;5.90;3.38;;;;;;;;;;5096587;28;20072;-88
2023/06/19 01:49:01;;;;;;;4.47;3.45;;;;;;;;;;5080334;28;20033;-89
2023/06/19 01:51:27;;;;;;;5.15;3.67;;;;;;;;;;5079241;28;20013;-88
2023/06/19 01:53:53;;;;;;;7.43;3.25;;;;;;;;;;5084583;28;20031;-88
2023/06/19 01:56:24;;;;;;;5.72;3.20;;;19.90;99.90;;;;;;5069249;28;20021;-88
2023/06/19 01:58:50;;;;;;;6.15;3.30;;;;;;;;;;5055438;28;20044;-89
2023/06/19 02:01:17;;;;;;;4.57;3.35;;;;;;;;;;5080876;28;20025;-90
2023/06/19 02:03:43;;;;;;;5.13;2.97;;;;;;;;;;5065299;28;20098;-87
2023/06/19 02:06:09;;;;;;;5.78;3.38;;;;;;;;;;5080434;28;20028;-89
2023/06/19 02:08:35;;;;;;;4.82;3.30;;;;;;;;;;5082690;28;20123;-90
2023/06/19 02:11:01;;;;;;;5.07;3.35;;;;;;;;;;5059162;28;20028;-86
2023/06/19 02:13:27;;;;;;;6.28;3.28;;;;;;;;;;5059399;28;20051;-85
2023/06/19 02:15:53;;;;;;;6.45;3.55;;;;;;;;;;5076377;28;20035;-86
2023/06/19 02:18:19;;;;;;;5.20;3.40;;;;;;;;;;5074347;28;20120;-86
2023/06/19 02:20:45;;;;;;;7.75;3.50;;;;;;;;;;5076908;28;20078;-87
2023/06/19 02:23:11;;;;;;;6.07;3.55;;;;;;;;;;5051944;28;20040;-88
2023/06/19 02:25:37;;;;;;;7.00;3.92;;;;;;;;;;5057370;28;20039;-88
2023/06/19 02:28:03;;;;;;;7.35;3.55;;;;;;;;;;5058967;28;20033;-87
2023/06/19 02:30:29;;;;;;;5.05;3.40;;;;;;;;;;5078122;28;20098;-84
2023/06/19 02:32:55;;;;;;;6.32;3.55;;;;;;;;;;5058734;28;20037;-85
2023/06/19 02:35:21;;;;;;;5.90;3.50;;;;;;;;;;5059148;28;20056;-88
2023/06/19 02:37:47;;;;;;;5.57;3.55;;;;;;;;;;5055625;28;20032;-86
2023/06/19 02:40:14;;;;;;;5.30;3.40;;;;;;;;;;5075130;28;20048;-86
2023/06/19 02:42:40;;;;;;;5.72;3.60;;;;;;;;;;5059613;28;20016;-90
2023/06/19 02:45:06;;;;;;;4.72;3.47;;;;;;;;;;5077203;28;20028;-89
2023/06/19 02:47:35;;;;;;;7.28;3.50;;;;;;;;;;5040277;28;20179;-90
2023/06/19 02:50:03;;;;;;;5.38;3.40;;;20.30;99.90;;;;;;5074523;28;20033;-89
2023/06/19 02:52:30;;;;;;;4.13;3.40;;;20.30;99.90;;;;;;5075608;28;20025;-88
2023/06/19 02:54:56;;;;;;;4.85;3.60;;;;;;;;;;5053194;28;20052;-88
2023/06/19 02:57:22;;;;;;;6.43;3.70;;;;;;;;;;5060598;28;20013;-89
2023/06/19 02:59:49;;;;;;;5.63;3.50;;;;;;;;;;5083350;28;20028;-88
2023/06/19 03:02:15;;;;;;;5.13;3.80;;;;;;;;;;5080265;28;20028;-90
2023/06/19 03:04:41;;;;;;;6.28;3.92;;;;;;;;;;5078434;28;20028;-88
2023/06/19 03:07:07;;;;;;;5.47;3.50;;;;;;;;;;5087830;28;20032;-87
2023/06/19 03:09:33;;;;;;;4.85;3.83;;;;;;;;;;5069601;28;20098;-86
2023/06/19 03:11:59;;;;;;;6.03;3.85;;;;;;;;;;5086458;28;20028;-89
2023/06/19 03:14:25;;;;;;;4.78;3.80;;;;;;;;;;5069584;28;20017;-88
2023/06/19 03:16:51;;;;;;;5.10;3.75;;;;;;;;;;5087110;28;20066;-88
2023/06/19 03:19:17;;;;;;;6.70;4.10;;;;;;;;;;5070748;28;20036;-87
2023/06/19 03:21:43;;;;;;;7.53;3.95;;;;;;;;;;5053753;28;20032;-89
2023/06/19 03:24:09;;;;;;;6.90;4.05;;;;;;;;;;5069944;28;20097;-88
2023/06/19 03:26:35;;;;;;;5.35;3.70;;;;;;;;;;5071534;28;20020;-88
2023/06/19 03:29:01;;;;;;;6.18;3.88;;;;;;;;;;5072751;28;20044;-87
2023/06/19 03:31:27;;;;;;;6.00;3.83;;;;;;;;;;5071775;28;20017;-88
2023/06/19 03:33:53;;;;;;;5.47;3.85;;;;;;;;;;5069268;28;20108;-88
2023/06/19 03:36:19;;;;;;;6.68;4.38;;;;;;;;;;5071177;28;20027;-88
2023/06/19 03:38:45;;;;;;;8.20;4.00;;;;;;;;;;5087401;28;20062;-88
2023/06/19 03:41:11;;;;;;;8.60;5.15;;;;;;;;;;5085758;28;20013;-87
2023/06/19 03:43:37;;;;;;;6.15;3.90;;;;;;;;;;5088147;28;20044;-88
2023/06/19 03:46:03;;;;;;;6.22;4.25;;;;;;;;;;5070880;28;20040;-88
2023/06/19 03:48:29;;;;;;;7.65;4.22;;;;;;;;;;5064385;28;20089;-88
2023/06/19 03:50:55;;;;;;;7.40;4.60;;;;;;;;;;5077825;28;20028;-87
2023/06/19 03:53:21;;;;;;;5.93;4.38;;;;;;;;;;5075959;28;20028;-88
2023/06/19 03:55:47;;;;;;;6.95;4.20;;;;;;;;;;5056202;28;20102;-88
2023/06/19 03:58:13;;;;;;;4.93;3.88;;;;;;;;;;5057566;28;20037;-88
2023/06/19 04:00:39;;;;;;;4.90;3.65;;;;;;;;;;5051717;28;20060;-86
2023/06/19 04:03:05;;;;;;;6.45;4.13;;;;;;;;;;5054962;28;20108;-89
2023/06/19 04:05:31;;;;;;;7.30;4.13;;;;;;;;;;5078563;28;20059;-92
2023/06/19 04:07:57;;;;;;;6.78;4.18;;;;;;;;;;5073038;28;20020;-89
2023/06/19 04:10:23;;;;;;;6.10;4.30;;;;;;;;;;5080533;28;20021;-88
2023/06/19 04:12:50;;;;;;;9.55;4.32;;;;;;;;;;5063035;28;20044;-90
2023/06/19 04:15:16;;;;;;;5.85;3.83;;;;;;;;;;5082664;28;20032;-91
2023/06/19 04:17:42;;;;;;;7.20;4.35;;;;;;;;;;5061448;28;20024;-88
2023/06/19 04:20:12;;;;;;;5.68;4.38;;;;;;;;;;5081415;28;20139;-91
2023/06/19 04:22:39;;;;;;;6.22;4.30;;;;;;;;;;5066528;28;20028;-88
2023/06/19 04:25:07;;;;;;;7.05;4.60;;;;;;;;;;5076398;28;20036;-93
2023/06/19 04:27:33;;;;;;;8.18;4.53;;;;;;;;;;5085211;28;20454;-91
2023/06/19 04:29:59;;;;;;;5.80;3.67;;;;;;;;;;5084095;28;20036;-90
2023/06/19 04:32:25;;;;;;;5.82;3.95;;;;;;;;;;5086618;28;20196;-91
2023/06/19 04:34:51;;;;;;;5.10;4.13;;;;;;;;;;5068678;28;20035;-90
2023/06/19 04:37:19;;;;;;;8.35;4.50;;;;;;;;;;5087683;22;20515;-85
2023/06/19 04:39:45;;;;;;;6.28;4.22;;;;;;;;;;5063289;28;20021;-83
2023/06/19 04:42:19;;;;;;;6.03;4.55;;;;;;;;;;5079746;28;20067;-84
2023/06/19 04:44:46;;;;;;;7.43;4.68;;;;;;;;;;5076057;28;20037;-84
2023/06/19 04:47:12;;;;;;;5.78;4.25;;;;;;;;;;5066084;28;20044;-83
2023/06/19 04:49:37;;;;;;;5.65;4.63;;;;;;;;;;5076093;28;20128;-85
2023/06/19 04:52:04;;;;;;;5.85;4.20;;;;;;;;;;5066435;28;20033;-85
2023/06/19 04:54:32;;;;;;;5.70;4.35;;;;;;;;;;5059425;28;20020;-85
2023/06/19 04:56:58;;;;;;;5.70;4.20;;;;;;;;;;5062366;28;20021;-85
2023/06/19 04:59:24;;;;;;;6.47;4.10;;;;;;;;;;5058375;28;20037;-84
2023/06/19 05:01:53;;;;;;;8.70;4.50;;;;;;;;;;5078159;28;20120;-85
2023/06/19 05:04:19;;;;;;;8.57;4.97;;;;;;;;;;5061696;28;20434;-84
2023/06/19 05:06:45;;;;;;;7.82;4.70;;;;;;;;;;5058719;28;20211;-84
2023/06/19 05:09:11;;;;;;;6.00;4.80;;;;;;;;;;5054803;28;20263;-84
2023/06/19 05:11:37;;;;;;;7.45;4.50;;;;;;;;;;5059983;28;20047;-83
2023/06/19 05:14:03;;;;;;;14.00;4.85;;;;;;;;;;5070302;28;20021;-84
2023/06/19 05:16:29;;;;;;;7.00;5.03;;;;;;;;;;5062687;28;20048;-77
2023/06/19 05:18:56;;;;;;;5.70;4.13;;;;;;;;;;5047357;28;20032;-81
2023/06/19 05:21:22;;;;;;;8.60;4.50;;;;;;;;;;5044876;28;20245;-75
2023/06/19 05:23:50;;;;;;;5.82;4.18;;;;;;;;;;5041260;28;20484;-77
2023/06/19 05:26:16;;;;;;;6.43;4.38;;;20.80;99.90;;;;;;5048032;28;20022;-79
2023/06/19 05:28:42;;;;;;;5.63;4.32;;;;;;;;;;5043478;28;20035;-80
2023/06/19 05:31:08;;;;;;;6.40;4.35;;;;;;;;;;5047292;28;20056;-77
2023/06/19 05:33:34;;;;;;;8.52;4.88;;;;;;;;;;5052728;28;20040;-79
2023/06/19 05:36:01;;;;;;;6.85;4.25;;;;;;;;;;5050437;28;20083;-77
2023/06/19 05:38:30;;;;;;;7.13;3.90;;;;;;;;;;5053745;28;20465;-79
2023/06/19 05:40:56;;;;;;;6.63;4.13;;;;;;;;;;5045799;28;20039;-79
2023/06/19 05:43:22;;;;;;;7.13;4.07;;;;;;;;;;5045415;28;20570;-79
2023/06/19 05:45:48;;;;;;;7.70;3.90;;;;;;;;;;5052634;28;20025;-79
2023/06/19 05:48:14;;;;;;;8.43;4.10;;;;;;;;;;5052438;28;20037;-79
2023/06/19 05:50:40;;;;;;;6.50;4.30;;;;;;;;;;5051626;28;20514;-78
2023/06/19 05:53:06;;;;;;;10.32;3.67;;;;;;;;;;5047316;28;20517;-78
2023/06/19 05:55:32;;;;;;;7.80;3.97;;;;;;;;;;5050360;28;20033;-79
2023/06/19 05:57:58;;;;;;;7.53;3.63;;;;;;;;;;5069261;28;20078;-79
2023/06/19 06:00:24;;;;;;;6.10;3.63;;;;;;;;;;5052610;28;20455;-79
2023/06/19 06:02:53;;;;;;;7.35;3.80;;;;;;;;;;5047601;28;20033;-79
2023/06/19 06:05:20;;;;;;;6.05;3.58;;;;;;;;;;5045627;28;20105;-79
2023/06/19 06:07:46;;;;;;;6.85;3.72;;;;;;;;;;5046932;28;20025;-77
2023/06/19 06:10:12;;;;;;;8.20;3.60;;;;;;;;;;5069673;28;20045;-79
2023/06/19 06:12:38;;;;;;;7.45;3.45;;;;;;;;;;5063800;28;20017;-78
2023/06/19 06:15:05;;;;;;;6.32;3.58;;;;;;;;;;5084759;28;20029;-78
2023/06/19 06:17:31;;;;;;;11.57;3.72;;;;;;;;;;5066002;28;20025;-78
2023/06/19 06:19:57;;;;;;;7.78;3.78;;;;;;;;;;5061040;28;20084;-78
2023/06/19 06:22:23;;;;;;;7.60;3.50;;;;;;;;;;5052980;28;20048;-78
2023/06/19 06:24:49;;;;;;;6.97;3.70;;;;;;;;;;5053887;28;20561;-78
2023/06/19 06:27:15;;;;;;;8.15;3.97;;;;;;;;;;5035184;28;20126;-78
2023/06/19 06:29:41;;;;;;;6.50;3.17;;;;;;;;;;5070063;28;20049;-76
2023/06/19 06:32:07;;;;;;;8.05;3.80;;;21.80;99.90;;;;;;5061707;28;20013;-77
2023/06/19 06:34:34;;;;;;;6.38;3.50;;;21.90;99.90;;;;;;5064777;28;20088;-78
2023/06/19 06:37:00;;;;;;;6.53;3.65;;;;;;;;;;5060766;28;20017;-76
2023/06/19 06:39:26;;;;;;;5.28;3.17;;;;;;;;;;5061294;28;20029;-77
2023/06/19 06:41:52;;;;;;;6.15;3.15;;;;;;;;;;5061538;28;20063;-77
2023/06/19 06:44:18;;;;;;;6.28;2.92;;;;;;;;;;5065200;28;20132;-77
2023/06/19 06:46:44;;;;;;;5.28;3.00;;;;;;;;;;5059927;28;20055;-77
2023/06/19 06:49:11;;;;;;;4.50;3.22;;;21.70;99.90;;;;;;5086006;28;20039;-78
2023/06/19 06:51:37;;;;;;;5.15;3.00;;;;;;;;;;5067104;28;20029;-78
2023/06/19 06:54:03;;;;;;;5.18;2.85;;;;;;;;;;5068039;28;20021;-78
2023/06/19 06:56:29;;;;;;;5.88;2.75;;;;;;;;;;5066026;28;20025;-77
2023/06/19 06:58:55;;;;;;;6.20;2.70;;;;;;;;;;5070112;28;20081;-77
2023/06/19 07:01:21;;;;;;;4.05;2.63;;;;;;;;;;5070028;28;20060;-78
2023/06/19 07:03:47;;;;;;;6.93;2.85;;;;;;;;;;5063195;28;20045;-79
2023/06/19 07:06:13;;;;;;;7.68;3.95;;;;;;;;;;5061623;28;20049;-79
2023/06/19 07:08:40;;;;;;;4.47;2.42;;;;;;;;;;5069639;28;20032;-78
2023/06/19 07:11:07;;;;;;;5.00;2.20;;;;;;;;;;5069232;28;20061;-79
2023/06/19 07:13:33;;;;;;;5.25;2.47;;;;;;;;;;5064819;28;20024;-79
2023/06/19 07:16:01;;;;;;;5.95;2.70;;;;;;;;;;5055990;28;20068;-79
2023/06/19 07:18:27;;;;;;;6.80;3.17;;;;;;;;;;5055342;28;20986;-79
2023/06/19 07:20:53;;;;;;;4.53;2.67;;;;;;;;;;5064428;28;20078;-79
2023/06/19 07:23:19;;;;;;;3.38;2.40;;;;;;;;;;5057191;28;20405;-79
2023/06/19 07:25:46;;;;;;;4.55;2.45;;;22.30;99.90;;;;;;5058008;28;20029;-78
2023/06/19 07:28:12;;;;;;;4.38;2.72;;;;;;;;;;5055829;28;20065;-79
2023/06/19 07:30:38;;;;;;;5.95;2.53;;;;;;;;;;5069434;28;20088;-79
2023/06/19 07:33:04;;;;;;;2.97;2.22;;;;;;;;;;5053709;28;20514;-79
2023/06/19 07:35:30;;;;;;;6.32;2.75;;;;;;;;;;5056895;28;20032;-82
2023/06/19 07:37:56;;;;;;;6.45;2.72;;;;;;;;;;5060681;28;20529;-82
2023/06/19 07:40:23;;;;;;;4.43;2.70;;;;;;;;;;5058724;28;20017;-81
2023/06/19 07:42:49;;;;;;;6.47;2.65;;;;;;;;;;5069073;28;20025;-84
2023/06/19 07:45:15;;;;;;;4.38;2.30;;;;;;;;;;5058930;28;20088;-83
2023/06/19 07:47:41;;;;;;;3.97;2.20;;;;;;;;;;5061208;28;20075;-84
2023/06/19 07:50:07;;;;;;;4.95;1.95;;;;;;;;;;5087635;28;20029;-84
2023/06/19 07:52:33;;;;;;;5.78;2.75;;;;;;;;;;5069150;28;20025;-84
2023/06/19 07:55:00;;;;;;;4.32;2.33;;;;;;;;;;5062840;28;20024;-84
2023/06/19 07:57:26;;;;;;;4.22;2.20;;;23.40;99.90;;;;;;5058700;28;20029;-84
2023/06/19 07:59:53;;;;;;;5.15;2.72;;;;;;;;;;5060604;28;20059;-85
2023/06/19 08:02:19;;;;;;;4.53;2.75;;;;;;;;;;5059790;28;20055;-83
2023/06/19 08:04:46;;;;;;;6.50;2.47;;;;;;;;;;5061390;28;20079;-84
2023/06/19 08:07:12;;;;;;;3.53;2.28;;;;;;;;;;5059915;28;20029;-84
2023/06/19 08:09:38;;;;;;;4.03;2.50;;;;;;;;;;5073882;28;20055;-82
2023/06/19 08:12:04;;;;;;;2.72;2.13;;;;;;;;;;5059583;28;20033;-83
2023/06/19 08:14:30;;;;;;;3.50;2.30;;;;;;;;;;5062191;28;20029;-84
2023/06/19 08:16:56;;;;;;;6.07;2.20;;;;;;;;;;5056255;28;20027;-84
2023/06/19 08:19:22;;;;;;;3.33;2.25;;;;;;;;;;5066036;28;20033;-85
2023/06/19 08:21:48;;;;;;;3.72;2.22;;;;;;;;;;5086705;28;20032;-84
2023/06/19 08:24:14;;;;;;;3.50;2.40;;;;;;;;;;5054693;28;20027;-85
2023/06/19 08:26:40;;;;;;;2.92;2.03;;;;;;;;;;5062659;28;20082;-83
2023/06/19 08:29:06;;;;;;;2.97;2.10;;;;;;;;;;5067993;28;20120;-84
2023/06/19 08:31:33;;;;;;;3.63;2.38;;;;;;;;;;5056714;28;20044;-83
2023/06/19 08:34:00;;;;;;;3.92;2.53;;;;;;;;;;5056676;28;20044;-84
2023/06/19 08:36:26;;;;;;;4.72;2.45;;;;;;;;;;5056025;28;20029;-83
2023/06/19 08:38:52;;;;;;;2.90;2.08;;;;;;;;;;5059952;28;20727;-84
2023/06/19 08:41:19;;;;;;;3.33;2.00;;;;;;;;;;5084548;28;20006;-84
2023/06/19 08:43:45;;;;;;;4.47;2.25;;;;;;;;;;5074650;28;20021;-84
2023/06/19 08:46:18;;;;;;;3.72;2.28;;;;;;;;;;5075685;28;20029;-84
2023/06/19 08:48:45;;;;;;;2.40;2.00;;;;;;;;;;5062525;28;20037;-84
2023/06/19 08:51:11;;;;;;;4.35;2.80;;;;;;;;;;5076882;28;20033;-85
2023/06/19 08:53:44;;;;;;;4.05;2.45;;;;;;;;;;5076996;28;20108;-84
2023/06/19 08:56:10;;;;;;;4.57;2.30;;;;;;;;;;5058782;28;20041;-85
2023/06/19 08:58:37;;;;;;;4.15;2.45;;;;;;;;;;5075202;28;20063;-84
2023/06/19 09:01:03;;;;;;;6.57;2.63;;;;;;;;;;5060618;28;20047;-84
2023/06/19 09:03:29;;;;;;;4.38;2.28;;;;;;;;;;5056538;28;20577;-84
2023/06/19 09:05:55;;;;;;;4.20;2.22;;;;;;;;;;5064027;28;20037;-84
2023/06/19 09:08:22;;;;;;;3.05;2.13;;;23.90;99.90;;;;;;5056821;28;20104;-85
2023/06/19 09:11:04;;;;;;;3.65;2.30;;;24.00;99.90;;;;;;5059664;28;20021;-85
2023/06/19 09:13:31;;;;;;;2.92;2.00;;;23.90;99.90;;;;;;5058328;28;20024;-84
2023/06/19 09:16:08;;;;;;;5.10;2.33;;;24.10;99.90;;;;;;5054365;28;20055;-83
2023/06/19 09:18:47;;;;;;;3.65;1.95;;;;;;;;;;5061390;28;20035;-85
2023/06/19 09:21:19;;;;;;;4.53;2.23;;;;;;;;;;5062069;28;20040;-84
2023/06/19 09:23:49;;;;;;;3.67;2.25;;;;;;;;;;5055767;28;20036;-84
2023/06/19 09:26:16;;;;;;;6.07;2.60;;;;;;;;;;5079595;28;20047;-85
2023/06/19 09:28:42;;;;;;;3.13;2.10;;;;;;;;;;5060735;28;20035;-84
2023/06/19 09:31:08;;;;;;;6.78;2.42;;;;;;;;;;5064310;28;20029;-84
2023/06/19 09:33:35;;;;;;;4.85;2.20;;;;;;;;;;5058205;28;20448;-84
2023/06/19 09:36:02;;;;;;;4.63;2.50;;;;;;;;;;5063247;28;20017;-84
2023/06/19 09:38:29;;;;;;;5.32;2.55;;;;;;;;;;5062569;28;20033;-85
2023/06/19 09:40:56;;;;;;;3.30;2.30;;;;;;;;;;5052700;28;20394;-84
2023/06/19 09:43:30;;;;;;;3.90;2.45;;;;;;;;;;5078417;28;20024;-83
2023/06/19 09:45:57;;;;;;;5.13;2.78;;;;;;;;;;5061387;28;20087;-83
2023/06/19 09:48:28;;;;;;;3.10;2.55;;;;;;;;;;5061753;28;20029;-84
2023/06/19 09:50:55;;;;;;;4.70;2.30;;;;;;;;;;5059844;28;20017;-84
2023/06/19 09:53:22;;;;;;;3.20;2.50;;;;;;;;;;5074013;28;20025;-84
2023/06/19 09:55:52;;;;;;;6.50;2.80;;;;;;;;;;5052819;28;20029;-83
2023/06/19 09:58:25;;;;;;;3.50;2.13;;;;;;;;;;5070800;28;20029;-84
2023/06/19 10:00:51;;;;;;;4.97;2.72;;;;;;;;;;5064432;28;20052;-83
2023/06/19 10:03:17;;;;;;;3.60;2.40;;;;;;;;;;5060629;28;20032;-84
2023/06/19 10:05:44;;;;;;;4.47;2.42;;;;;;;;;;5060641;28;20036;-83
2023/06/19 10:08:10;;;;;;;3.15;2.40;;;;;;;;;;5063433;28;20025;-83
2023/06/19 10:10:36;;;;;;;2.72;1.95;;;;;;;;;;5073790;28;20036;-84
2023/06/19 10:13:13;;;;;;;7.05;2.88;;;;;;;;;;5071908;28;20040;-84
2023/06/19 10:15:44;;;;;;;4.45;2.50;;;26.10;99.90;;;;;;5054840;28;20109;-84
2023/06/19 10:18:16;;;;;;;5.22;2.80;;;;;;;;;;5055017;28;20028;-83
2023/06/19 10:20:44;;;;;;;5.03;2.60;;;;;;;;;;5080747;28;20033;-84
2023/06/19 10:23:17;;;;;;;3.67;2.42;;;;;;;;;;5062831;28;20486;-83
2023/06/19 10:25:44;;;;;;;4.22;2.85;;;;;;;;;;5060516;28;20040;-85
2023/06/19 10:28:23;;;;;;;6.00;2.35;;;;;;;;;;5058992;28;20037;-84
2023/06/19 10:30:54;;;;;;;4.40;2.60;;;;;;;;;;5078823;28;20124;-84
2023/06/19 10:33:20;;;;;;;4.75;2.30;;;;;;;;;;5060312;28;20028;-84
2023/06/19 10:42:15;;;;;;;3.33;2.33;;;;;;;;;;5068829;28;20039;-82
2023/06/19 10:45:46;;;;;;;3.72;2.40;;;26.80;98.20;;;;;;5076231;28;20028;-83
2023/06/19 10:48:44;;;;;;;3.08;2.28;;;;;;;;;;5077739;28;20040;-83
2023/06/19 10:51:58;;;;;;;5.57;2.60;;;27.00;97.50;;;;;;5077146;28;20035;-82
2023/06/19 10:54:41;;;;;;;4.35;2.47;;;;;;;;;;5074545;28;20021;-82
2023/06/19 11:01:07;;;;;;;4.05;2.17;;;27.40;96.20;;;;;;5040855;28;20032;-85
2023/06/19 11:04:13;;;;;;;3.95;2.47;;;;;;;;;;5022818;28;20032;-83
2023/06/19 11:07:19;;;;;;;4.55;2.40;;;;;;;;;;5017067;28;20735;-83
2023/06/19 11:10:23;;;;;;;6.10;2.45;;;;;;;;;;4982702;28;20043;-83
2023/06/19 11:13:33;;;;;;;3.95;2.40;;;;;;;;;;4950376;28;20038;-82
2023/06/19 11:17:04;;;;;;;4.00;2.47;;;26.90;96.40;;;;;;4979556;28;20623;-83
2023/06/19 11:26:39;;;;;;;4.07;2.53;;;26.70;96.80;;;;;;5010511;28;20085;-83
2023/06/19 11:29:44;;;;;;;3.17;2.40;;;;;;;;;;4947923;28;20046;-83
2023/06/19 11:32:55;;;;;;;5.97;3.10;;;;;;;;;;4972939;28;20066;-84
2023/06/19 11:39:37;;;;;;;6.55;3.08;;;26.80;96.70;;;;;;4974116;28;20040;-82
2023/06/19 11:42:52;;;;;;;4.35;2.40;;;;;;;;;;4957522;28;20039;-83
2023/06/19 11:49:40;;;;;;;4.85;2.65;;;26.90;97.00;;;;;;4863940;29;20066;-82
2023/06/19 11:52:36;;;;;;;4.55;2.70;;;;;;;;;;4857780;29;20137;-83
2023/06/19 11:56:14;;;;;;;5.15;2.55;;;;;;;;;;4856019;29;20029;-83
2023/06/19 11:59:37;;;;;;;4.40;2.70;;;27.00;96.60;;;;;;4810032;29;20162;-83
2023/06/19 12:02:34;;;;;;;4.88;3.00;;;;;;;;;;4788986;29;20045;-84
2023/06/19 12:05:26;;;;;;;4.85;2.85;;;26.90;96.40;;;;;;4840709;29;20054;-83
2023/06/19 12:08:10;;;;;;;4.60;2.72;;;;;;;;;;4823106;29;20130;-83
2023/06/19 12:10:54;;;;;;;6.30;3.00;;;;;;;;;;4830011;29;20286;-84
2023/06/19 12:20:30;;;;;;;5.40;3.20;;;;;;;;;;5072561;22;20054;-84
2023/06/19 12:22:56;;;;;;;4.75;3.03;;;;;;;;;;5087533;28;20020;-84
2023/06/19 12:25:22;;;;;;;5.43;2.80;;;;;;;;;;5083432;28;20138;-83
2023/06/19 12:27:51;;;;;;;4.55;3.20;;;;;;;;;;5080265;28;20020;-83
2023/06/19 12:30:17;;;;;;;6.00;3.73;;;;;;;;;;5089838;28;20028;-81
2023/06/19 12:32:43;;;;;;;4.30;2.63;;;;;;;;;;5081706;28;20953;-82
2023/06/19 12:35:09;;;;;;;7.85;3.22;;;;;;;;;;5083467;28;20048;-85
2023/06/19 12:37:35;;;;;;;4.65;3.50;;;;;;;;;;5086170;28;20327;-83
2023/06/19 12:40:05;;;;;;;5.13;3.10;;;;;;;;;;5076454;28;20106;-86
2023/06/19 12:42:33;;;;;;;4.35;3.08;;;;;;;;;;5095392;28;20025;-84
2023/06/19 12:44:59;;;;;;;4.18;3.05;;;;;;;;;;5097804;28;20035;-85
2023/06/19 12:47:25;;;;;;;4.25;3.10;;;;;;;;;;5091658;28;20070;-83
2023/06/19 12:49:51;;;;;;;4.13;2.90;;;;;;;;;;5072912;28;20025;-86
2023/06/19 12:52:17;;;;;;;3.15;2.58;;;;;;;;;;5094503;28;20024;-84
2023/06/19 12:54:43;;;;;;;4.03;3.05;;;;;;;;;;5101642;28;20020;-84
2023/06/19 12:57:09;;;;;;;4.53;3.00;;;;;;;;;;5102408;28;20027;-83
2023/06/19 12:59:35;;;;;;;7.95;3.10;;;;;;;;;;5076677;28;20027;-82
2023/06/19 13:02:01;;;;;;;4.00;2.95;;;;;;;;;;5089973;28;20036;-82
2023/06/19 13:04:27;;;;;;;8.80;3.92;;;;;;;;;;5085924;28;20032;-85
2023/06/19 13:06:53;;;;;;;4.38;3.10;;;;;;;;;;5071201;28;20031;-83
2023/06/19 13:09:19;;;;;;;4.10;2.95;;;;;;;;;;5097753;28;20174;-85
2023/06/19 13:11:45;;;;;;;7.55;2.80;;;;;;;;;;5075162;28;20023;-83
2023/06/19 13:14:11;;;;;;;5.70;3.17;;;;;;;;;;5072854;28;20123;-83
2023/06/19 13:16:37;;;;;;;5.28;3.45;;;;;;;;;;5072574;28;20035;-83
2023/06/19 13:19:03;;;;;;;3.90;2.90;;;;;;;;;;5088987;28;20948;-84
2023/06/19 13:21:29;;;;;;;5.40;3.00;;;;;;;;;;5090737;28;20478;-83
2023/06/19 13:23:56;;;;;;;4.45;3.22;;;;;;;;;;5086757;28;20032;-83
2023/06/19 13:26:22;;;;;;;4.55;3.30;;;;;;;;;;5079256;28;20035;-83
2023/06/19 13:28:48;;;;;;;5.10;3.55;;;;;;;;;;5092514;28;20024;-84
2023/06/19 13:31:14;;;;;;;5.47;3.97;;;;;;;;;;5092948;28;20047;-83
2023/06/19 13:33:39;;;;;;;5.93;3.40;;;;;;;;;;5093289;28;20017;-83
2023/06/19 13:36:06;;;;;;;7.03;4.00;;;;;;;;;;5095224;28;20020;-83
2023/06/19 13:38:31;;;;;;;6.88;3.35;;;;;;;;;;5084730;28;20035;-83
2023/06/19 13:40:57;;;;;;;3.88;3.20;;;;;;;;;;5086574;28;20028;-83
2023/06/19 13:43:23;;;;;;;4.75;3.30;;;;;;;;;;5074435;28;20047;-83
2023/06/19 13:45:50;;;;;;;6.70;3.22;;;;;;;;;;5085905;28;20054;-82
2023/06/19 13:48:16;;;;;;;5.03;3.35;;;;;;;;;;5089092;28;20056;-83
2023/06/19 13:50:42;;;;;;;4.07;3.10;;;;;;;;;;5087695;28;20036;-83
2023/06/19 13:53:08;;;;;;;3.38;3.05;;;;;;;;;;5086920;28;20055;-82
2023/06/19 13:55:34;;;;;;;4.93;3.28;;;;;;;;;;5069083;28;20502;-81
2023/06/19 13:58:00;;;;;;;4.72;3.28;;;;;;;;;;5092801;28;20028;-83
2023/06/19 14:00:26;;;;;;;6.95;3.35;;;;;;;;;;5075471;28;20056;-84
2023/06/19 14:02:53;;;;;;;7.28;3.40;;;;;;;;;;5076263;28;20119;-83
2023/06/19 14:05:19;;;;;;;5.38;3.17;;;;;;;;;;5076065;28;20409;-82
2023/06/19 14:07:45;;;;;;;5.15;2.90;;;;;;;;;;5084019;28;20508;-84
2023/06/19 14:10:11;;;;;;;8.93;3.47;;;;;;;;;;5086155;28;20028;-83
2023/06/19 14:12:37;;;;;;;5.28;3.22;;;;;;;;;;5089024;28;20412;-86
2023/06/19 14:15:03;;;;;;;4.32;3.00;;;27.10;97.40;;;;;;5090315;28;20031;-84
2023/06/19 14:17:29;;;;;;;4.35;3.60;;;;;;;;;;5075673;28;20028;-85
2023/06/19 14:19:56;;;;;;;4.50;3.05;;;;;;;;;;5073141;28;20035;-83
2023/06/19 14:22:22;;;;;;;4.30;3.58;;;;;;;;;;5091937;28;20032;-86
2023/06/19 14:24:49;;;;;;;4.90;3.42;;;;;;;;;;5093599;28;20050;-86
2023/06/19 14:27:15;;;;;;;4.28;3.35;;;;;;;;;;5077858;28;20069;-86
2023/06/19 14:29:42;;;;;;;4.78;3.28;;;;;;;;;;5095977;28;20024;-86
2023/06/19 14:32:07;;;;;;;4.90;3.80;;;;;;;;;;5077682;28;20123;-83
2023/06/19 14:34:33;;;;;;;6.25;4.10;;;;;;;;;;5091989;28;20051;-85
2023/06/19 14:37:00;;;;;;;6.25;3.40;;;;;;;;;;5076942;28;20049;-84
2023/06/19 14:39:26;;;;;;;4.18;3.10;;;;;;;;;;5083508;28;20095;-83
2023/06/19 14:41:52;;;;;;;6.53;3.80;;;;;;;;;;5094992;28;20023;-86
2023/06/19 14:44:18;;;;;;;4.78;3.30;;;;;;;;;;5088605;28;20549;-84
2023/06/19 14:46:44;;;;;;;5.35;3.10;;;;;;;;;;5081557;28;20080;-86
2023/06/19 14:49:14;;;;;;;4.13;3.20;;;27.00;97.70;;;;;;5095031;27;20073;-86
2023/06/19 14:51:40;;;;;;;4.40;3.10;;;;;;;;;;5105183;28;20031;-88
2023/06/19 14:54:06;;;;;;;8.52;3.13;;;;;;;;;;5108196;27;20111;-86
2023/06/19 14:56:35;;;;;;;4.65;3.55;;;;;;;;;;5112907;28;20050;-85
2023/06/19 14:59:01;;;;;;;4.80;3.60;;;;;;;;;;5092230;28;20063;-86
2023/06/19 15:01:27;;;;;;;6.28;3.70;;;;;;;;;;5109491;28;20032;-84
2023/06/19 15:03:53;;;;;;;8.52;3.30;;;;;;;;;;5107241;28;20153;-84
2023/06/19 15:06:19;;;;;;;3.88;3.25;;;;;;;;;;5106057;28;20024;-85
2023/06/19 15:08:45;;;;;;;5.03;3.50;;;;;;;;;;5105296;28;20046;-86
2023/06/19 15:11:11;;;;;;;4.68;3.40;;;;;;;;;;5090818;28;20494;-86
2023/06/19 15:13:37;;;;;;;5.07;3.67;;;;;;;;;;5092285;28;20091;-85
2023/06/19 15:16:07;;;;;;;4.38;3.42;;;;;;;;;;5083106;28;20030;-87